createdAt,value
2018-11-28T00:02:06.546Z,98665.48
2018-11-28T00:07:09.745Z,98663.23
2018-11-28T00:12:12.918Z,98668.77
2018-11-28T00:17:16.057Z,98669.49
2018-11-28T00:22:19.241Z,98663.23
2018-11-28T00:27:22.396Z,98657.13
2018-11-28T00:32:25.491Z,98654.90
2018-11-28T00:37:28.653Z,98661.20
2018-11-28T00:42:31.829Z,98653.80
2018-11-28T00:47:35.084Z,98654.91
2018-11-28T00:52:38.339Z,98661.39
2018-11-28T00:57:41.549Z,98660.16
2018-11-28T01:02:44.921Z,98665.34
2018-11-28T01:07:51.613Z,98661.51
2018-11-28T01:12:54.904Z,98666.56
2018-11-28T01:17:58.081Z,98663.95
2018-11-28T01:23:01.292Z,98662.25
2018-11-28T01:28:04.784Z,98664.08
2018-11-28T01:33:08.009Z,98659.31
2018-11-28T01:38:11.161Z,98658.55
2018-11-28T01:43:14.312Z,98674.41
2018-11-28T01:48:17.543Z,98662.27
2018-11-28T01:53:20.732Z,98658.55
2018-11-28T01:58:23.905Z,98661.99
2018-11-28T02:03:27.101Z,98654.13
2018-11-28T02:08:30.288Z,98651.44
2018-11-28T02:13:33.456Z,98651.23
2018-11-28T02:18:36.604Z,98651.69
2018-11-28T02:23:39.881Z,98652.20
2018-11-28T02:28:43.129Z,98658.34
2018-11-28T02:33:46.412Z,98663.09
2018-11-28T02:38:49.573Z,98665.19
2018-11-28T02:43:52.717Z,98661.59
2018-11-28T02:48:56.249Z,98663.91
2018-11-28T02:53:59.372Z,98671.39
2018-11-28T02:59:02.672Z,98663.63
2018-11-28T03:04:06.299Z,98666.02
2018-11-28T03:09:09.552Z,98665.48
2018-11-28T03:14:12.795Z,98666.68
2018-11-28T03:19:16.008Z,98675.74
2018-11-28T03:24:19.204Z,98676.52
2018-11-28T03:29:22.399Z,98675.06
2018-11-28T03:34:25.582Z,98678.04
2018-11-28T03:39:28.781Z,98680.26
2018-11-28T03:44:31.957Z,98676.38
2018-11-28T03:49:35.123Z,98686.33
2018-11-28T03:54:38.262Z,98691.92
2018-11-28T03:59:41.463Z,98694.95
2018-11-28T04:04:44.659Z,98686.88
2018-11-28T04:09:47.837Z,98693.80
2018-11-28T04:14:51.048Z,98697.52
2018-11-28T04:19:54.214Z,98688.21
2018-11-28T04:24:57.397Z,98683.97
2018-11-28T04:30:00.550Z,98687.33
2018-11-28T04:35:04.529Z,98687.72
2018-11-28T04:40:13.171Z,98678.25
2018-11-28T04:45:18.916Z,98685.08
2018-11-28T04:50:22.285Z,98688.38
2018-11-28T04:55:25.434Z,98705.09
2018-11-28T05:00:28.617Z,98687.45
2018-11-28T05:05:31.801Z,98686.42
2018-11-28T05:10:35.004Z,98690.72
2018-11-28T05:15:38.235Z,98696.31
2018-11-28T05:20:41.450Z,98690.78
2018-11-28T05:25:44.641Z,98697.20
2018-11-28T05:30:47.902Z,98696.70
2018-11-28T05:35:51.085Z,98700.36
2018-11-28T05:40:54.304Z,98698.72
2018-11-28T05:45:57.474Z,98703.44
2018-11-28T05:51:00.633Z,98698.83
2018-11-28T05:56:04.504Z,98699.34
2018-11-28T06:01:07.671Z,98700.84
2018-11-28T06:06:10.881Z,98705.71
2018-11-28T06:11:14.047Z,98710.11
2018-11-28T06:16:17.262Z,98712.93
2018-11-28T06:21:20.551Z,98721.08
2018-11-28T06:26:23.823Z,98736.94
2018-11-28T06:31:27.034Z,98736.24
2018-11-28T06:36:30.229Z,98739.51
2018-11-28T06:46:47.311Z,98743.72
2018-11-28T06:51:50.628Z,98746.05
2018-11-28T06:56:53.850Z,98755.81
2018-11-28T07:01:57.020Z,98758.19
2018-11-28T07:07:00.189Z,98759.40
2018-11-28T07:12:03.467Z,98764.89
2018-11-28T07:17:07.009Z,98767.91
2018-11-28T07:22:10.189Z,98776.88
2018-11-28T07:27:13.393Z,98785.69
2018-11-28T07:32:16.574Z,98785.50
2018-11-28T07:37:19.756Z,98799.02
2018-11-28T07:42:22.901Z,98805.30
2018-11-28T07:47:26.101Z,98796.30
2018-11-28T07:52:29.283Z,98804.84
2018-11-28T07:57:32.434Z,98804.03
2018-11-28T08:02:35.603Z,98802.06
2018-11-28T08:07:38.995Z,98810.88
2018-11-28T08:12:42.199Z,98809.00
2018-11-28T08:17:45.471Z,98806.78
2018-11-28T08:22:48.664Z,98800.25
2018-11-28T08:27:51.885Z,98799.14
2018-11-28T08:32:56.296Z,98803.49
2018-11-28T08:37:59.792Z,98799.86
2018-11-28T08:43:03.230Z,98807.57
2018-11-28T08:48:06.522Z,98805.31
2018-11-28T08:53:09.692Z,98797.84
2018-11-28T08:58:12.927Z,98800.33
2018-11-28T09:03:16.173Z,98803.75
2018-11-28T09:08:19.967Z,98806.70
2018-11-28T09:13:23.285Z,98809.31
2018-11-28T09:18:26.533Z,98812.09
2018-11-28T09:23:29.744Z,98818.45
2018-11-28T09:28:32.905Z,98827.17
2018-11-28T09:33:36.113Z,98828.53
2018-11-28T09:38:39.362Z,98828.20
2018-11-28T09:43:42.521Z,98842.55
2018-11-28T09:48:45.699Z,98833.34
2018-11-28T09:53:48.863Z,98830.48
2018-11-28T09:58:52.014Z,98821.33
2018-11-28T10:03:55.319Z,98827.00
2018-11-28T10:08:58.462Z,98832.86
2018-11-28T10:14:01.640Z,98829.55
2018-11-28T10:19:05.237Z,98820.67
2018-11-28T10:24:08.420Z,98811.91
2018-11-28T10:29:11.650Z,98803.34
2018-11-28T10:34:14.853Z,98801.21
2018-11-28T10:39:18.074Z,98796.91
2018-11-28T10:44:21.320Z,98792.39
2018-11-28T10:49:24.585Z,98778.38
2018-11-28T10:54:27.778Z,98790.76
2018-11-28T10:59:30.959Z,98788.56
2018-11-28T11:05:37.658Z,98786.72
2018-11-28T11:10:46.886Z,98786.09
2018-11-28T11:15:57.083Z,98789.20
2018-11-28T11:21:00.238Z,98789.58
2018-11-28T11:26:03.485Z,98789.95
2018-11-28T11:31:06.704Z,98784.60
2018-11-28T11:36:09.893Z,98775.21
2018-11-28T11:41:13.094Z,98776.60
2018-11-28T11:46:16.312Z,98777.48
2018-11-28T11:51:19.474Z,98766.75
2018-11-28T11:56:22.676Z,98776.01
2018-11-28T12:01:25.850Z,98776.77
2018-11-28T12:06:28.996Z,98774.52
2018-11-28T12:11:32.267Z,98773.13
2018-11-28T12:16:35.446Z,98763.61
2018-11-28T12:21:38.654Z,98763.15
2018-11-28T12:26:41.869Z,98754.65
2018-11-28T12:31:45.053Z,98758.84
2018-11-28T12:36:48.222Z,98765.23
2018-11-28T12:41:51.476Z,98758.57
2018-11-28T12:46:54.677Z,98757.84
2018-11-28T12:51:57.918Z,98748.59
2018-11-28T12:57:01.122Z,98750.59
2018-11-28T13:02:04.824Z,98748.27
2018-11-28T13:07:07.998Z,98741.01
2018-11-28T13:12:11.208Z,98742.25
2018-11-28T13:17:14.436Z,98750.58
2018-11-28T13:22:17.603Z,98749.19
2018-11-28T13:27:20.817Z,98743.38
2018-11-28T13:32:24.029Z,98743.93
2018-11-28T13:37:27.224Z,98741.87
2018-11-28T13:42:30.445Z,98735.91
2018-11-28T13:47:33.709Z,98738.20
2018-11-28T13:52:36.916Z,98738.41
2018-11-28T13:57:40.097Z,98745.45
2018-11-28T14:02:43.334Z,98738.61
2018-11-28T14:07:46.584Z,98745.04
2018-11-28T14:12:49.792Z,98745.30
2018-11-28T14:17:56.720Z,98747.19
2018-11-28T14:23:00.065Z,98748.42
2018-11-28T14:28:03.293Z,98751.52
2018-11-28T14:33:06.550Z,98760.85
2018-11-28T14:38:09.905Z,98760.59
2018-11-28T14:43:13.136Z,98753.64
2018-11-28T14:48:16.377Z,98764.22
2018-11-28T14:53:19.575Z,98764.88
2018-11-28T14:58:22.793Z,98769.62
2018-11-28T15:03:26.052Z,98777.50
2018-11-28T15:08:30.028Z,98768.02
2018-11-28T15:13:33.270Z,98772.08
2018-11-28T15:18:36.542Z,98781.81
2018-11-28T15:23:40.378Z,98782.58
2018-11-28T15:28:43.718Z,98777.76
2018-11-28T15:33:46.963Z,98781.08
2018-11-28T15:38:50.198Z,98784.88
2018-11-28T15:43:53.542Z,98796.91
2018-11-28T15:48:56.780Z,98804.86
2018-11-28T15:54:00.010Z,98813.03
2018-11-28T15:59:03.292Z,98805.83
2018-11-28T16:04:06.610Z,98806.79
2018-11-28T16:09:15.653Z,98804.77
2018-11-28T16:14:18.890Z,98811.75
2018-11-28T16:19:22.072Z,98804.71
2018-11-28T16:24:25.299Z,98803.28
2018-11-28T16:29:28.481Z,98808.89
2018-11-28T16:34:31.727Z,98812.13
2018-11-28T16:39:34.957Z,98806.98
2018-11-28T16:44:38.208Z,98810.37
2018-11-28T16:49:41.393Z,98805.97
2018-11-28T16:54:44.673Z,98805.90
2018-11-28T16:59:47.929Z,98813.88
2018-11-28T17:04:51.277Z,98812.31
2018-11-28T17:09:54.563Z,98816.17
2018-11-28T17:14:57.827Z,98818.48
2018-11-28T17:20:01.038Z,98825.06
2018-11-28T17:25:05.675Z,98808.66
2018-11-28T17:30:11.838Z,98803.95
2018-11-28T17:35:15.125Z,98786.86
2018-11-28T17:40:24.913Z,98803.34
2018-11-28T17:45:29.246Z,98786.09
2018-11-28T17:50:32.612Z,98789.95
2018-11-28T17:55:54.052Z,98783.64
2018-11-28T18:00:57.302Z,98785.14
2018-11-28T18:06:00.568Z,98796.03
2018-11-28T18:11:11.002Z,98789.92
2018-11-28T18:16:14.247Z,98806.73
2018-11-28T18:21:17.920Z,98799.52
2018-11-28T18:26:21.218Z,98807.59
2018-11-28T18:31:24.590Z,98807.59
2018-11-28T18:36:27.915Z,98821.15
2018-11-28T18:41:31.289Z,98834.92
2018-11-28T18:46:34.599Z,98832.75
2018-11-28T18:51:37.885Z,98828.45
2018-11-28T18:56:41.206Z,98821.45
2018-11-28T19:01:48.363Z,98827.69
2018-11-28T19:06:48.113Z,98835.37
2018-11-28T19:11:51.469Z,98838.06
2018-11-28T19:16:54.859Z,98843.78
2018-11-28T19:21:58.410Z,98842.47
2018-11-28T19:27:01.884Z,98824.12
2018-11-28T19:32:06.501Z,98824.06
2018-11-28T19:37:10.181Z,98822.96
2018-11-28T19:42:13.797Z,98830.97
2018-11-28T19:47:18.844Z,98831.06
2018-11-28T19:52:22.490Z,98829.28
2018-11-28T19:57:25.983Z,98817.75
2018-11-28T20:02:29.443Z,98811.33
2018-11-28T20:07:33.291Z,98823.69
2018-11-28T20:12:37.435Z,98824.44
2018-11-28T20:17:40.922Z,98822.23
2018-11-28T20:22:44.683Z,98820.91
2018-11-28T20:27:52.617Z,98833.84
2018-11-28T20:32:57.445Z,98829.22
2018-11-28T20:38:01.075Z,98836.48
2018-11-28T20:43:05.578Z,98830.13
2018-11-28T20:48:09.832Z,98825.52
2018-11-28T20:53:17.156Z,98827.05
2018-11-28T20:58:20.619Z,98826.20
2018-11-28T21:03:24.008Z,98832.31
2018-11-28T21:08:27.479Z,98841.54
2018-11-28T21:13:30.768Z,98833.72
2018-11-28T21:18:34.407Z,98831.25
2018-11-28T21:23:37.901Z,98834.47
2018-11-28T21:28:41.201Z,98830.94
2018-11-28T21:33:44.473Z,98830.11
2018-11-28T21:38:47.750Z,98823.06
2018-11-28T21:43:51.825Z,98817.81
2018-11-28T21:48:55.857Z,98800.52
2018-11-28T21:53:59.132Z,98778.88
2018-11-28T21:59:02.447Z,98778.16
2018-11-28T22:04:05.922Z,98785.68
2018-11-28T22:09:11.267Z,98788.36
2018-11-28T22:14:15.065Z,98786.89
2018-11-28T22:19:18.320Z,98785.49
2018-11-28T22:24:21.753Z,98786.55
2018-11-28T22:29:25.005Z,98790.67
2018-11-28T22:34:28.314Z,98783.72
2018-11-28T22:39:31.641Z,98776.72
2018-11-28T22:44:34.922Z,98773.82
2018-11-28T22:49:38.300Z,98769.76
2018-11-28T22:54:41.573Z,98761.91
2018-11-28T22:59:44.882Z,98745.16
2018-11-28T23:04:48.057Z,98747.52
2018-11-28T23:09:51.465Z,98755.73
2018-11-28T23:14:54.809Z,98740.42
2018-11-28T23:19:58.106Z,98748.33
2018-11-28T23:25:01.677Z,98743.16
2018-11-28T23:30:08.861Z,98739.16
2018-11-28T23:35:12.463Z,98724.70
2018-11-28T23:40:21.112Z,98719.08
2018-11-28T23:45:25.269Z,98704.38
2018-11-28T23:50:28.495Z,98707.77
2018-11-28T23:55:32.125Z,98699.40
